createdAt,value
2023-05-21T00:00:00.208Z,38.83
2023-05-21T00:02:30.450Z,39.15
2023-05-21T00:04:58.099Z,38.46
2023-05-21T00:07:25.795Z,38.72
2023-05-21T00:09:53.317Z,38.18
2023-05-21T00:12:21.022Z,39.27
2023-05-21T00:14:48.605Z,38.74
2023-05-21T00:17:16.298Z,39.15
2023-05-21T00:19:44.615Z,39.04
2023-05-21T00:22:12.468Z,40.35
2023-05-21T00:24:39.981Z,39.91
2023-05-21T00:27:07.623Z,40.59
2023-05-21T00:29:35.569Z,39.64
2023-05-21T00:32:04.043Z,39.17
2023-05-21T00:34:31.836Z,40.09
2023-05-21T00:36:59.429Z,41.14
2023-05-21T00:39:27.026Z,41.15
2023-05-21T00:41:57.122Z,41.21
2023-05-21T00:44:25.730Z,41.27
2023-05-21T00:46:56.476Z,41.43
2023-05-21T00:49:24.771Z,41.10
2023-05-21T00:51:53.294Z,41.23
2023-05-21T00:54:21.608Z,39.93
2023-05-21T00:56:49.604Z,40.36
2023-05-21T00:59:17.545Z,40.51
2023-05-21T01:01:46.011Z,40.79
2023-05-21T01:04:13.729Z,40.40
2023-05-21T01:06:42.974Z,39.54
2023-05-21T01:09:10.590Z,38.97
2023-05-21T01:11:40.338Z,38.45
2023-05-21T01:14:11.699Z,38.61
2023-05-21T01:16:41.298Z,38.26
2023-05-21T01:19:14.006Z,38.50
2023-05-21T01:21:47.389Z,37.77
2023-05-21T01:24:16.327Z,37.75
2023-05-21T01:26:44.500Z,37.67
2023-05-21T01:29:13.640Z,37.44
2023-05-21T01:31:56.026Z,38.29
2023-05-21T01:34:29.862Z,38.25
2023-05-21T01:37:08.362Z,38.02
2023-05-21T01:39:41.104Z,37.72
2023-05-21T01:42:11.321Z,38.08
2023-05-21T01:44:40.556Z,37.77
2023-05-21T01:47:08.221Z,37.32
2023-05-21T01:49:36.129Z,37.02
2023-05-21T01:52:05.213Z,37.29
2023-05-21T01:54:32.840Z,37.18
2023-05-21T01:57:00.426Z,36.98
2023-05-21T01:59:30.305Z,36.47
2023-05-21T02:01:58.087Z,36.51
2023-05-21T02:04:26.131Z,36.53
2023-05-21T02:06:55.134Z,36.70
2023-05-21T02:09:22.981Z,36.42
2023-05-21T02:11:50.874Z,35.96
2023-05-21T02:14:18.636Z,35.75
2023-05-21T02:16:46.633Z,35.32
2023-05-21T02:19:14.708Z,35.46
2023-05-21T02:21:42.429Z,35.23
2023-05-21T02:24:09.986Z,34.76
2023-05-21T02:26:37.729Z,35.01
2023-05-21T02:29:05.503Z,35.45
2023-05-21T02:31:33.292Z,34.86
2023-05-21T02:34:01.134Z,34.54
2023-05-21T02:36:29.286Z,34.46
2023-05-21T02:38:58.041Z,34.26
2023-05-21T02:41:27.245Z,33.84
2023-05-21T02:43:54.793Z,33.42
2023-05-21T02:46:22.593Z,33.46
2023-05-21T02:48:50.294Z,33.64
2023-05-21T02:51:17.989Z,33.63
2023-05-21T02:53:45.788Z,33.40
2023-05-21T02:56:13.979Z,32.80
2023-05-21T02:58:42.048Z,32.98
2023-05-21T03:01:09.929Z,31.94
2023-05-21T03:03:37.661Z,31.27
2023-05-21T03:06:05.704Z,30.42
2023-05-21T03:08:33.420Z,29.62
2023-05-21T03:11:01.204Z,28.95
2023-05-21T03:13:28.950Z,28.10
2023-05-21T03:15:56.748Z,27.25
2023-05-21T03:18:24.700Z,26.67
2023-05-21T03:20:53.298Z,26.04
2023-05-21T03:23:20.933Z,25.16
2023-05-21T03:25:48.932Z,25.09
2023-05-21T03:28:18.032Z,24.25
2023-05-21T03:30:53.680Z,24.04
2023-05-21T03:33:40.773Z,23.39
2023-05-21T03:36:37.553Z,22.69
2023-05-21T03:39:05.266Z,22.40
2023-05-21T03:41:34.753Z,21.29
2023-05-21T03:44:09.053Z,20.95
2023-05-21T03:47:02.765Z,20.42
2023-05-21T03:49:33.881Z,19.96
2023-05-21T03:52:01.616Z,19.28
2023-05-21T03:54:29.355Z,18.65
2023-05-21T03:57:01.872Z,18.45
2023-05-21T03:59:29.788Z,18.58
2023-05-21T04:01:57.397Z,17.92
2023-05-21T04:04:25.142Z,18.41
2023-05-21T04:06:54.554Z,17.55
2023-05-21T04:09:23.916Z,16.94
2023-05-21T04:11:52.948Z,16.09
2023-05-21T04:14:20.508Z,16.01
2023-05-21T04:16:49.539Z,15.35
2023-05-21T04:19:17.223Z,14.72
2023-05-21T04:21:45.357Z,15.01
2023-05-21T04:24:15.265Z,14.43
2023-05-21T04:27:03.105Z,14.08
2023-05-21T04:29:32.383Z,13.62
2023-05-21T04:32:00.053Z,13.46
2023-05-21T04:34:27.682Z,13.65
2023-05-21T04:36:55.338Z,13.35
2023-05-21T04:39:23.010Z,13.60
2023-05-21T04:41:51.093Z,12.99
2023-05-21T04:44:18.916Z,13.03
2023-05-21T04:46:49.270Z,12.76
2023-05-21T04:49:18.629Z,12.38
2023-05-21T04:51:47.093Z,12.39
2023-05-21T04:54:15.039Z,11.54
2023-05-21T04:56:42.735Z,11.05
2023-05-21T04:59:10.465Z,11.31
2023-05-21T05:01:38.863Z,11.39
2023-05-21T05:04:06.896Z,11.49
2023-05-21T05:06:34.963Z,11.05
2023-05-21T05:09:02.692Z,11.08
2023-05-21T05:11:31.444Z,10.82
2023-05-21T05:13:59.170Z,10.60
2023-05-21T05:16:26.956Z,9.65
2023-05-21T05:18:57.724Z,9.42
2023-05-21T05:21:25.482Z,8.77
2023-05-21T05:23:53.110Z,9.26
2023-05-21T05:26:26.406Z,9.32
2023-05-21T05:28:54.015Z,10.16
2023-05-21T05:31:21.852Z,10.20
2023-05-21T05:33:49.810Z,10.09
2023-05-21T05:36:17.417Z,10.44
2023-05-21T05:38:45.127Z,8.67
2023-05-21T05:41:12.771Z,8.16
2023-05-21T05:43:40.784Z,7.86
2023-05-21T05:46:08.868Z,8.22
2023-05-21T05:48:36.542Z,7.72
2023-05-21T05:51:04.365Z,7.72
2023-05-21T05:53:32.729Z,7.49
2023-05-21T05:56:00.569Z,7.16
2023-05-21T05:58:33.449Z,7.42
2023-05-21T06:01:10.650Z,7.26
2023-05-21T06:03:38.959Z,7.30
2023-05-21T06:06:12.388Z,7.44
2023-05-21T06:08:40.949Z,7.01
2023-05-21T06:11:08.854Z,7.44
2023-05-21T06:13:36.619Z,7.55
2023-05-21T06:16:06.917Z,7.51
2023-05-21T06:18:34.768Z,7.15
2023-05-21T06:21:02.502Z,7.41
2023-05-21T06:23:32.879Z,7.48
2023-05-21T06:26:01.047Z,6.94
2023-05-21T06:28:29.110Z,6.65
2023-05-21T06:30:56.811Z,6.74
2023-05-21T06:33:27.830Z,7.08
2023-05-21T06:35:56.171Z,6.97
2023-05-21T06:38:24.635Z,7.38
2023-05-21T06:40:53.092Z,6.74
2023-05-21T06:43:38.224Z,6.35
2023-05-21T06:46:24.541Z,6.85
2023-05-21T06:48:53.172Z,6.06
2023-05-21T06:51:21.767Z,5.51
2023-05-21T06:53:49.487Z,5.77
2023-05-21T06:56:18.813Z,5.82
2023-05-21T06:58:47.108Z,6.11
2023-05-21T07:01:17.080Z,6.11
2023-05-21T07:03:46.411Z,6.01
2023-05-21T07:06:14.127Z,5.90
2023-05-21T07:08:42.205Z,6.01
2023-05-21T07:11:10.460Z,5.95
2023-05-21T07:13:38.369Z,5.75
2023-05-21T07:16:06.497Z,5.91
2023-05-21T07:18:34.228Z,6.02
2023-05-21T07:21:01.949Z,6.24
2023-05-21T07:23:29.793Z,6.32
2023-05-21T07:25:57.387Z,6.16
2023-05-21T07:28:25.543Z,6.15
2023-05-21T07:30:53.233Z,6.37
2023-05-21T07:33:28.268Z,6.30
2023-05-21T07:35:55.887Z,5.90
2023-05-21T07:38:24.123Z,6.26
2023-05-21T07:40:51.772Z,6.71
2023-05-21T07:43:19.611Z,6.50
2023-05-21T07:45:47.398Z,6.50
2023-05-21T07:48:15.782Z,6.65
2023-05-21T07:50:53.749Z,7.03
2023-05-21T07:53:21.985Z,7.18
2023-05-21T07:55:50.759Z,7.03
2023-05-21T07:58:23.676Z,7.00
2023-05-21T08:00:51.543Z,6.78
2023-05-21T08:03:20.020Z,6.88
2023-05-21T08:05:51.220Z,6.93
2023-05-21T08:08:20.089Z,7.19
2023-05-21T08:10:48.172Z,7.15
2023-05-21T08:13:17.562Z,7.33
2023-05-21T08:15:47.420Z,6.95
2023-05-21T08:18:17.978Z,7.33
2023-05-21T08:20:48.684Z,7.27
2023-05-21T08:23:19.075Z,7.37
2023-05-21T08:25:51.451Z,7.55
2023-05-21T08:28:19.127Z,7.65
2023-05-21T08:30:47.084Z,7.70
2023-05-21T08:33:19.518Z,8.13
2023-05-21T08:35:48.639Z,7.90
2023-05-21T08:38:23.369Z,8.34
2023-05-21T08:41:14.429Z,8.64
2023-05-21T08:43:48.571Z,8.67
2023-05-21T08:46:21.182Z,8.38
2023-05-21T08:48:49.577Z,8.02
2023-05-21T08:51:17.445Z,8.50
2023-05-21T08:53:51.673Z,8.41
2023-05-21T08:56:21.577Z,8.36
2023-05-21T08:58:59.869Z,8.24
2023-05-21T09:01:33.691Z,8.34
2023-05-21T09:04:29.117Z,8.57
2023-05-21T09:06:58.366Z,9.00
2023-05-21T09:09:55.635Z,9.24
2023-05-21T09:12:25.365Z,9.11
2023-05-21T09:14:53.834Z,8.54
2023-05-21T09:17:27.133Z,8.50
2023-05-21T09:20:16.521Z,8.76
2023-05-21T09:22:55.868Z,8.97
2023-05-21T09:25:30.133Z,9.53
2023-05-21T09:28:02.661Z,9.05
2023-05-21T09:30:32.443Z,9.22
2023-05-21T09:33:02.077Z,9.20
2023-05-21T09:35:30.001Z,9.13
2023-05-21T09:37:57.881Z,9.23
2023-05-21T09:40:25.843Z,9.10
2023-05-21T09:42:55.295Z,9.06
2023-05-21T09:45:24.788Z,9.57
2023-05-21T09:47:56.072Z,9.49
2023-05-21T09:50:27.303Z,9.33
2023-05-21T09:52:56.133Z,9.15
2023-05-21T09:55:24.809Z,8.78
2023-05-21T09:57:53.482Z,8.98
2023-05-21T10:00:22.548Z,8.60
2023-05-21T10:02:56.036Z,8.48
2023-05-21T10:05:31.256Z,8.79
2023-05-21T10:08:04.951Z,8.85
2023-05-21T10:10:33.015Z,8.55
2023-05-21T10:13:09.079Z,8.78
2023-05-21T10:15:44.658Z,8.97
2023-05-21T10:18:14.551Z,8.72
2023-05-21T10:20:43.238Z,8.86
2023-05-21T10:23:11.167Z,9.26
2023-05-21T10:25:39.357Z,9.18
2023-05-21T10:28:07.390Z,9.24
2023-05-21T10:30:37.494Z,9.16
2023-05-21T10:33:06.243Z,8.73
2023-05-21T10:35:35.079Z,8.76
2023-05-21T10:38:05.347Z,8.79
2023-05-21T10:40:33.144Z,9.10
2023-05-21T10:43:30.901Z,8.97
2023-05-21T10:46:19.762Z,9.31
2023-05-21T10:49:02.574Z,8.95
2023-05-21T10:51:55.141Z,9.22
2023-05-21T10:54:58.434Z,9.04
2023-05-21T10:57:57.521Z,8.75
2023-05-21T11:00:27.478Z,9.15
2023-05-21T11:02:55.768Z,9.61
2023-05-21T11:06:02.956Z,9.78
2023-05-21T11:08:33.924Z,9.40
2023-05-21T11:11:02.613Z,9.62
2023-05-21T11:13:49.349Z,9.49
2023-05-21T11:16:18.527Z,9.75
2023-05-21T11:18:46.456Z,9.58
2023-05-21T11:21:19.105Z,9.93
2023-05-21T11:23:52.187Z,9.79
2023-05-21T11:26:24.039Z,10.20
2023-05-21T11:29:12.253Z,10.35
2023-05-21T11:31:40.457Z,10.32
2023-05-21T11:34:28.979Z,10.12
2023-05-21T11:37:18.645Z,10.47
2023-05-21T11:39:46.856Z,9.97
2023-05-21T11:42:31.936Z,10.44
2023-05-21T11:45:01.381Z,10.65
2023-05-21T11:47:34.470Z,10.71
2023-05-21T11:50:03.994Z,10.45
2023-05-21T11:52:34.109Z,10.67
2023-05-21T11:55:02.110Z,10.97
2023-05-21T11:57:32.172Z,10.55
2023-05-21T12:00:02.013Z,10.89
2023-05-21T12:02:34.488Z,10.67
2023-05-21T12:05:02.107Z,10.84
2023-05-21T12:07:31.633Z,10.87
2023-05-21T12:09:59.381Z,10.78
2023-05-21T12:12:38.496Z,11.24
2023-05-21T12:15:13.883Z,11.36
2023-05-21T12:17:41.617Z,11.00
2023-05-21T12:20:11.172Z,11.03
2023-05-21T12:22:43.569Z,10.96
2023-05-21T12:25:12.434Z,11.35
2023-05-21T12:27:42.357Z,11.82
2023-05-21T12:30:10.410Z,11.42
2023-05-21T12:32:44.735Z,11.12
2023-05-21T12:35:23.265Z,11.34
2023-05-21T12:37:51.481Z,11.26
2023-05-21T12:40:19.626Z,11.63
2023-05-21T12:42:48.509Z,11.52
2023-05-21T12:45:19.154Z,11.30
2023-05-21T12:47:50.775Z,11.37
2023-05-21T12:50:22.075Z,11.54
2023-05-21T12:52:49.929Z,11.43
2023-05-21T12:55:17.664Z,11.68
2023-05-21T12:57:45.899Z,11.64
2023-05-21T13:00:14.590Z,11.64
2023-05-21T13:02:44.176Z,11.69
2023-05-21T13:05:21.810Z,11.33
2023-05-21T13:07:51.884Z,11.82
2023-05-21T13:10:19.527Z,11.94
2023-05-21T13:12:48.449Z,11.80
2023-05-21T13:15:16.490Z,11.74
2023-05-21T13:17:44.191Z,12.05
2023-05-21T13:20:16.465Z,12.00
2023-05-21T13:22:47.318Z,12.01
2023-05-21T13:25:21.695Z,11.99
2023-05-21T13:27:51.019Z,12.17
2023-05-21T13:30:20.188Z,12.41
2023-05-21T13:32:48.879Z,12.29
2023-05-21T13:35:17.368Z,12.33
2023-05-21T13:37:45.603Z,12.51
2023-05-21T13:40:15.658Z,12.59
2023-05-21T13:42:49.764Z,12.47
2023-05-21T13:45:20.004Z,12.58
2023-05-21T13:47:48.452Z,12.49
2023-05-21T13:50:17.312Z,12.77
2023-05-21T13:52:45.592Z,12.92
2023-05-21T13:55:13.155Z,13.12
2023-05-21T13:57:40.987Z,13.05
2023-05-21T14:00:10.891Z,13.23
2023-05-21T14:02:38.789Z,12.70
2023-05-21T14:05:06.889Z,13.44
2023-05-21T14:07:34.720Z,13.22
2023-05-21T14:10:03.206Z,12.97
2023-05-21T14:12:33.700Z,13.16
2023-05-21T14:15:01.709Z,13.21
2023-05-21T14:17:34.161Z,13.29
2023-05-21T14:20:02.016Z,13.15
2023-05-21T14:22:32.752Z,13.11
2023-05-21T14:25:00.340Z,13.40
2023-05-21T14:27:27.980Z,13.40
2023-05-21T14:29:55.561Z,13.41
2023-05-21T14:32:23.418Z,13.79
2023-05-21T14:34:51.071Z,13.74
2023-05-21T14:37:18.633Z,14.29
2023-05-21T14:39:46.352Z,13.67
2023-05-21T14:42:13.998Z,14.05
2023-05-21T14:44:41.609Z,13.59
2023-05-21T14:47:09.353Z,13.88
2023-05-21T14:49:36.968Z,13.78
2023-05-21T14:52:05.224Z,13.98
2023-05-21T14:54:32.764Z,13.48
2023-05-21T14:57:00.540Z,14.04
2023-05-21T14:59:28.173Z,13.94
2023-05-21T15:01:56.016Z,13.99
2023-05-21T15:04:23.678Z,14.02
2023-05-21T15:06:51.589Z,14.16
2023-05-21T15:09:19.365Z,14.15
2023-05-21T15:11:46.979Z,14.21
2023-05-21T15:14:14.556Z,14.13
2023-05-21T15:16:42.203Z,14.36
2023-05-21T15:19:09.971Z,14.75
2023-05-21T15:21:37.814Z,14.71
2023-05-21T15:24:05.639Z,14.92
2023-05-21T15:26:33.290Z,14.98
2023-05-21T15:29:00.963Z,15.30
2023-05-21T15:31:28.672Z,15.16
2023-05-21T15:33:57.269Z,15.48
2023-05-21T15:36:27.172Z,15.13
2023-05-21T15:38:54.819Z,15.01
2023-05-21T15:41:22.610Z,15.06
2023-05-21T15:43:50.160Z,15.32
2023-05-21T15:46:17.714Z,15.32
2023-05-21T15:48:45.363Z,15.56
2023-05-21T15:51:13.015Z,15.32
2023-05-21T15:53:40.708Z,15.33
2023-05-21T15:56:09.449Z,15.61
2023-05-21T15:58:37.134Z,15.53
2023-05-21T16:01:04.783Z,16.07
2023-05-21T16:03:32.512Z,15.92
2023-05-21T16:06:00.300Z,16.18
2023-05-21T16:08:27.900Z,16.44
2023-05-21T16:10:57.453Z,16.58
2023-05-21T16:13:25.048Z,16.65
2023-05-21T16:15:53.257Z,16.93
2023-05-21T16:18:21.040Z,17.00
2023-05-21T16:20:48.705Z,16.87
2023-05-21T16:23:16.684Z,16.88
2023-05-21T16:25:44.412Z,17.04
2023-05-21T16:28:12.736Z,16.83
2023-05-21T16:30:40.317Z,17.39
2023-05-21T16:33:08.217Z,17.29
2023-05-21T16:35:36.169Z,17.22
2023-05-21T16:38:04.034Z,17.55
2023-05-21T16:40:31.930Z,17.43
2023-05-21T16:43:01.852Z,16.63
2023-05-21T16:45:39.261Z,16.89
2023-05-21T16:48:07.985Z,16.84
2023-05-21T16:50:36.347Z,17.01
2023-05-21T16:53:06.400Z,17.13
2023-05-21T16:55:36.132Z,16.97
2023-05-21T16:58:05.747Z,17.29
2023-05-21T17:00:34.564Z,17.37
2023-05-21T17:03:02.394Z,17.41
2023-05-21T17:05:30.329Z,17.45
2023-05-21T17:07:58.048Z,17.30
2023-05-21T17:10:25.971Z,17.21
2023-05-21T17:12:53.575Z,17.45
2023-05-21T17:15:21.542Z,17.28
2023-05-21T17:17:49.133Z,17.29
2023-05-21T17:20:16.775Z,17.67
2023-05-21T17:22:44.371Z,17.58
2023-05-21T17:25:12.210Z,17.49
2023-05-21T17:27:39.851Z,17.50
2023-05-21T17:30:08.303Z,17.26
2023-05-21T17:32:36.327Z,17.81
2023-05-21T17:35:04.153Z,17.39
2023-05-21T17:37:32.628Z,17.69
2023-05-21T17:40:00.288Z,17.76
2023-05-21T17:42:28.260Z,17.51
2023-05-21T17:44:55.914Z,17.64
2023-05-21T17:47:23.864Z,17.86
2023-05-21T17:49:51.593Z,17.55
2023-05-21T17:52:19.258Z,18.29
2023-05-21T17:54:46.950Z,19.67
2023-05-21T17:57:16.495Z,21.18
2023-05-21T17:59:45.636Z,20.43
2023-05-21T18:02:14.057Z,20.07
2023-05-21T18:04:41.752Z,20.21
2023-05-21T18:07:09.435Z,20.59
2023-05-21T18:09:37.128Z,20.31
2023-05-21T18:12:07.683Z,20.29
2023-05-21T18:14:35.844Z,20.54
2023-05-21T18:17:03.585Z,20.57
2023-05-21T18:19:31.596Z,20.26
2023-05-21T18:21:59.268Z,20.42
2023-05-21T18:24:26.894Z,19.90
2023-05-21T18:26:54.579Z,20.41
2023-05-21T18:29:22.317Z,20.23
2023-05-21T18:31:51.134Z,20.30
2023-05-21T18:34:18.846Z,20.07
2023-05-21T18:36:47.141Z,19.88
2023-05-21T18:39:14.766Z,19.56
2023-05-21T18:41:43.013Z,18.95
2023-05-21T18:44:10.557Z,19.64
2023-05-21T18:46:38.532Z,20.12
2023-05-21T18:49:06.241Z,19.42
2023-05-21T18:51:34.002Z,20.04
2023-05-21T18:54:01.747Z,19.72
2023-05-21T18:56:29.586Z,19.67
2023-05-21T18:58:57.270Z,19.71
2023-05-21T19:01:24.911Z,19.60
2023-05-21T19:03:52.616Z,19.50
2023-05-21T19:06:25.388Z,20.20
2023-05-21T19:08:53.286Z,20.17
2023-05-21T19:11:23.659Z,20.17
2023-05-21T19:13:51.537Z,20.04
2023-05-21T19:16:19.377Z,20.29
2023-05-21T19:18:47.023Z,19.70
2023-05-21T19:21:14.618Z,19.71
2023-05-21T19:23:52.569Z,19.97
2023-05-21T19:26:22.987Z,19.96
2023-05-21T19:28:54.794Z,19.86
2023-05-21T19:31:23.577Z,20.21
2023-05-21T19:33:51.714Z,19.47
2023-05-21T19:36:19.670Z,20.02
2023-05-21T19:38:51.043Z,19.83
2023-05-21T19:41:20.152Z,20.50
2023-05-21T19:43:48.004Z,20.29
2023-05-21T19:46:19.099Z,20.75
2023-05-21T19:48:48.027Z,21.10
2023-05-21T19:51:16.119Z,21.08
2023-05-21T19:53:43.766Z,23.22
2023-05-21T19:56:11.493Z,22.37
2023-05-21T19:58:39.193Z,22.93
2023-05-21T20:01:07.277Z,23.02
2023-05-21T20:03:36.239Z,22.91
2023-05-21T20:06:04.268Z,23.05
2023-05-21T20:08:32.067Z,23.68
2023-05-21T20:10:59.670Z,24.75
2023-05-21T20:13:27.326Z,25.87
2023-05-21T20:15:54.970Z,26.06
2023-05-21T20:18:22.685Z,25.80
2023-05-21T20:20:50.339Z,25.48
2023-05-21T20:23:17.958Z,25.45
2023-05-21T20:25:45.641Z,25.36
2023-05-21T20:28:13.427Z,25.23
2023-05-21T20:30:58.251Z,24.72
2023-05-21T20:33:28.211Z,24.19
2023-05-21T20:35:55.880Z,23.87
2023-05-21T20:38:25.989Z,23.55
2023-05-21T20:40:55.503Z,23.68
2023-05-21T20:43:24.674Z,23.02
2023-05-21T20:45:59.884Z,22.91
2023-05-21T20:48:29.410Z,22.23
2023-05-21T20:51:04.866Z,22.70
2023-05-21T20:53:32.664Z,22.60
2023-05-21T20:56:01.792Z,22.16
2023-05-21T20:58:29.983Z,22.21
2023-05-21T21:00:57.740Z,21.71
2023-05-21T21:03:25.483Z,22.38
2023-05-21T21:05:53.184Z,22.63
2023-05-21T21:08:21.049Z,23.07
2023-05-21T21:10:48.674Z,23.87
2023-05-21T21:13:16.497Z,24.51
2023-05-21T21:15:44.268Z,24.73
2023-05-21T21:18:14.864Z,24.81
2023-05-21T21:20:42.951Z,24.89
2023-05-21T21:23:10.562Z,24.54
2023-05-21T21:25:38.146Z,25.20
2023-05-21T21:28:05.781Z,25.20
2023-05-21T21:30:33.395Z,25.02
2023-05-21T21:33:01.364Z,25.04
2023-05-21T21:35:29.006Z,25.23
2023-05-21T21:37:56.788Z,25.24
2023-05-21T21:40:24.497Z,25.65
2023-05-21T21:42:52.189Z,26.17
2023-05-21T21:45:19.752Z,26.65
2023-05-21T21:47:47.559Z,26.89
2023-05-21T21:50:15.051Z,26.73
2023-05-21T21:52:42.974Z,27.07
2023-05-21T21:55:11.446Z,26.73
2023-05-21T21:57:39.943Z,26.88
2023-05-21T22:00:16.300Z,27.28
2023-05-21T22:02:44.639Z,27.23
2023-05-21T22:05:15.071Z,27.19
2023-05-21T22:07:48.438Z,27.64
2023-05-21T22:10:17.077Z,27.38
2023-05-21T22:12:46.196Z,27.23
2023-05-21T22:15:28.997Z,27.73
2023-05-21T22:17:56.708Z,27.69
2023-05-21T22:20:26.375Z,27.80
2023-05-21T22:22:55.316Z,27.63
2023-05-21T22:25:23.624Z,27.53
2023-05-21T22:27:51.920Z,27.50
2023-05-21T22:30:20.125Z,27.37
2023-05-21T22:32:49.317Z,27.63
2023-05-21T22:35:16.947Z,27.81
2023-05-21T22:37:44.818Z,28.07
2023-05-21T22:40:12.749Z,28.02
2023-05-21T22:42:40.868Z,28.09
2023-05-21T22:45:09.517Z,27.82
2023-05-21T22:47:39.838Z,28.06
2023-05-21T22:50:08.556Z,27.84
2023-05-21T22:52:37.204Z,27.95
2023-05-21T22:55:06.341Z,27.64
2023-05-21T22:57:34.023Z,27.58
2023-05-21T23:00:01.615Z,27.98
2023-05-21T23:02:32.785Z,28.38
2023-05-21T23:05:00.688Z,28.53
2023-05-21T23:07:28.325Z,28.40
2023-05-21T23:09:56.033Z,28.54
2023-05-21T23:12:23.881Z,28.94
2023-05-21T23:14:51.462Z,29.11
2023-05-21T23:17:19.213Z,29.38
2023-05-21T23:19:46.858Z,28.59
2023-05-21T23:22:14.530Z,29.15
2023-05-21T23:24:42.190Z,29.40
2023-05-21T23:27:09.872Z,29.63
2023-05-21T23:29:37.814Z,29.74
2023-05-21T23:32:05.974Z,30.01
2023-05-21T23:34:34.207Z,29.96
2023-05-21T23:37:02.205Z,30.12
2023-05-21T23:39:29.821Z,30.06
2023-05-21T23:41:57.433Z,30.45
2023-05-21T23:44:25.154Z,30.33
2023-05-21T23:46:52.792Z,30.86
2023-05-21T23:49:20.579Z,30.38
2023-05-21T23:51:51.029Z,30.79
2023-05-21T23:54:18.827Z,30.46
2023-05-21T23:56:46.812Z,30.54
2023-05-21T23:59:16.879Z,30.80
